Date,TemperatureHighF,TemperatureAvgF,TemperatureLowF,DewpointHighF,DewpointAvgF,DewpointLowF,HumidityHigh,HumidityAvg,HumidityLow,PressureMaxIn,PressureMinIn,WindSpeedMaxMPH,WindSpeedAvgMPH,GustSpeedMaxMPH,PrecipitationSumIn
2013-1-1,48,42,34,45,37,24,95,85,65,30.03,29.91,10,1,20,0.05
2013-1-2,43,40,38,42,36,33,96,84,71,30.07,29.87,4,1,10,0.02
2013-1-3,41,36,28,36,30,19,94,81,59,30.17,30.02,8,1,12,0.00
2013-1-4,41,31,24,21,16,9,78,55,29,30.24,30.15,9,3,19,0.00
2013-1-5,49,33,21,29,20,14,77,59,30,30.28,30.13,3,0,12,0.01
2013-1-6,47,39,35,35,30,24,85,72,50,30.13,29.98,11,2,24,0.01
2013-1-7,46,34,26,27,23,20,82,65,36,30.31,30.13,5,2,16,0.00
2013-1-8,53,38,26,39,29,19,87,72,56,30.33,30.25,3,1,8,0.00
2013-1-9,54,49,42,50,46,38,96,89,84,30.41,30.30,1,0,5,0.00
2013-1-10,61,53,45,52,47,40,97,82,64,30.44,30.31,6,2,14,0.00
2013-1-11,57,50,44,56,48,41,96,93,70,30.31,30.11,8,0,13,0.23
2013-1-12,68,60,55,60,56,53,97,87,72,30.16,30.09,5,1,16,0.02
2013-1-13,66,61,58,55,53,52,83,77,65,30.11,30.03,6,2,19,0.01
2013-1-14,60,57,46,58,56,44,98,96,84,30.13,30.03,5,1,12,1.11
2013-1-15,51,46,42,50,46,41,98,97,96,30.11,29.98,2,0,6,1.48
2013-1-16,56,50,43,55,49,42,98,96,81,29.99,29.91,3,0,8,0.63
2013-1-17,51,44,32,50,42,26,97,94,82,30.11,29.75,6,1,15,1.59
2013-1-18,42,32,26,28,24,15,85,71,50,30.40,30.11,8,1,15,0.11
2013-1-19,49,34,26,29,24,19,86,72,33,30.35,30.09,3,0,9,0.01
2013-1-20,51,41,30,31,25,21,78,56,33,30.09,30.01,10,3,25,0.01
2013-1-21,46,35,27,27,21,8,85,59,35,30.04,29.91,13,4,40,0.00
2013-1-22,29,24,19,9,-1,-9,46,34,19,30.11,29.89,13,6,31,0.00
2013-1-23,40,31,24,23,13,0,64,47,34,30.19,29.94,13,5,34,0.00
2013-1-24,41,32,22,27,7,-1,57,36,27,30.29,29.90,14,5,45,0.00
2013-1-25,41,26,18,37,17,0,90,67,39,30.30,29.94,14,2,28,0.11
2013-1-26,43,35,28,32,22,14,75,58,34,30.23,29.98,11,3,23,0.11
2013-1-27,38,31,23,29,22,17,84,71,60,30.39,30.22,4,1,7,0.03
2013-1-28,60,44,31,47,38,28,93,81,61,30.32,30.17,4,0,9,0.03
2013-1-29,65,52,41,54,46,38,92,80,55,30.19,30.01,5,1,13,0.03
2013-1-30,61,56,43,57,53,38,95,89,82,30.01,29.49,11,4,25,3.11
2013-1-31,42,33,28,38,19,15,85,56,46,29.92,29.52,14,8,36,0.66